Time;durP1;ratioP1;P1;durP2;ratioP2;P2;SDS_P1;SDS_P2;PMS_P1;PMS_P2;Temp;Humidity;BMP_temperature;BMP_pressure;BME280_temperature;BME280_humidity;BME280_pressure;Samples;Min_cycle;Max_cycle;Signal;HPM_P1;HPM_P2
2019/12/21 00:02:00;;;;;;;1.87;1.77;;;;;;;20.45;44.02;98525.98;;;;-50
2019/12/21 00:04:59;;;;;;;1.81;1.71;;;;;;;20.43;44.03;98529.14;;;;-54
2019/12/21 00:08:00;;;;;;;1.87;1.74;;;;;;;20.42;43.99;98526.36;;;;-53
2019/12/21 00:11:00;;;;;;;1.75;1.65;;;;;;;20.39;44.01;98527.35;;;;-46
2019/12/21 00:14:00;;;;;;;1.91;1.79;;;;;;;20.40;44.03;98526.61;;;;-49
2019/12/21 00:17:00;;;;;;;2.04;1.85;;;;;;;20.37;44.06;98525.33;;;;-49
2019/12/21 00:20:00;;;;;;;1.92;1.82;;;;;;;20.36;44.02;98528.58;;;;-54
2019/12/21 00:23:00;;;;;;;1.71;1.61;;;;;;;20.34;44.02;98526.72;;;;-54
2019/12/21 00:26:00;;;;;;;1.81;1.71;;;;;;;20.32;44.05;98526.12;;;;-55
2019/12/21 00:28:59;;;;;;;1.82;1.72;;;;;;;20.31;44.06;98529.37;;;;-54
2019/12/21 00:32:00;;;;;;;1.76;1.66;;;;;;;20.30;44.06;98530.05;;;;-50
2019/12/21 00:35:00;;;;;;;1.83;1.73;;;;;;;20.29;44.06;98531.72;;;;-49
2019/12/21 00:38:00;;;;;;;1.78;1.68;;;;;;;20.28;44.08;98532.62;;;;-50
2019/12/21 00:41:00;;;;;;;1.72;1.62;;;;;;;20.27;44.05;98532.01;;;;-49
2019/12/21 00:44:00;;;;;;;2.26;1.71;;;;;;;20.26;44.11;98534.75;;;;-49
2019/12/21 00:47:00;;;;;;;1.70;1.60;;;;;;;20.24;44.07;98537.03;;;;-49
2019/12/21 00:50:00;;;;;;;1.70;1.60;;;;;;;20.23;44.08;98545.71;;;;-49
2019/12/21 00:53:00;;;;;;;1.72;1.62;;;;;;;20.21;44.14;98547.70;;;;-49
2019/12/21 00:56:00;;;;;;;1.69;1.59;;;;;;;20.20;44.16;98551.04;;;;-49
2019/12/21 00:59:00;;;;;;;1.73;1.63;;;;;;;20.19;44.12;98547.20;;;;-45
2019/12/21 01:02:00;;;;;;;1.85;1.75;;;;;;;20.18;44.14;98545.76;;;;-50
2019/12/21 01:05:00;;;;;;;1.86;1.71;;;;;;;20.17;44.13;98549.61;;;;-50
2019/12/21 01:08:00;;;;;;;1.79;1.60;;;;;;;20.15;44.14;98547.48;;;;-46
2019/12/21 01:11:00;;;;;;;1.69;1.59;;;;;;;20.15;44.13;98556.21;;;;-50
2019/12/21 01:14:00;;;;;;;1.59;1.49;;;;;;;20.13;44.18;98552.83;;;;-50
2019/12/21 01:17:00;;;;;;;1.71;1.61;;;;;;;20.13;44.16;98559.11;;;;-50
2019/12/21 01:20:00;;;;;;;1.77;1.67;;;;;;;20.11;44.13;98560.34;;;;-53
2019/12/21 01:23:00;;;;;;;1.70;1.60;;;;;;;20.10;44.21;98572.24;;;;-54
2019/12/21 01:26:00;;;;;;;1.61;1.51;;;;;;;20.09;44.12;98572.47;;;;-49
2019/12/21 01:29:00;;;;;;;2.07;1.50;;;;;;;20.07;44.16;98575.37;;;;-49
2019/12/21 01:32:00;;;;;;;1.70;1.60;;;;;;;20.07;44.15;98582.16;;;;-49
2019/12/21 01:35:00;;;;;;;1.61;1.51;;;;;;;20.05;44.15;98580.72;;;;-49
2019/12/21 01:38:00;;;;;;;1.60;1.50;;;;;;;20.04;44.13;98586.82;;;;-48
2019/12/21 01:41:00;;;;;;;1.55;1.45;;;;;;;20.03;44.11;98591.86;;;;-46
2019/12/21 01:44:00;;;;;;;1.71;1.60;;;;;;;20.02;44.22;98592.92;;;;-46
2019/12/21 01:47:00;;;;;;;1.63;1.52;;;;;;;20.01;44.11;98596.83;;;;-54
2019/12/21 01:50:00;;;;;;;1.66;1.56;;;;;;;20.01;44.14;98594.66;;;;-54
2019/12/21 01:53:00;;;;;;;1.69;1.59;;;;;;;19.99;44.19;98593.81;;;;-54
2019/12/21 01:56:00;;;;;;;1.60;1.50;;;;;;;19.98;44.15;98591.66;;;;-54
2019/12/21 01:59:00;;;;;;;1.68;1.58;;;;;;;19.97;44.15;98587.12;;;;-54
2019/12/21 02:02:00;;;;;;;2.80;1.60;;;;;;;19.96;44.14;98589.73;;;;-46
2019/12/21 02:05:00;;;;;;;2.01;1.50;;;;;;;19.95;44.11;98589.45;;;;-46
2019/12/21 02:08:00;;;;;;;1.59;1.49;;;;;;;19.94;44.16;98589.77;;;;-46
2019/12/21 02:11:00;;;;;;;2.07;1.66;;;;;;;19.93;44.15;98582.81;;;;-46
2019/12/21 02:14:00;;;;;;;1.59;1.49;;;;;;;19.92;44.16;98581.37;;;;-54
2019/12/21 02:17:00;;;;;;;1.65;1.55;;;;;;;19.92;44.12;98581.61;;;;-50
2019/12/21 02:20:00;;;;;;;1.60;1.50;;;;;;;19.90;44.16;98581.53;;;;-50
2019/12/21 02:23:00;;;;;;;1.71;1.61;;;;;;;19.90;44.17;98580.95;;;;-49
2019/12/21 02:25:59;;;;;;;1.79;1.69;;;;;;;19.88;44.16;98578.49;;;;-50
2019/12/21 02:29:00;;;;;;;1.61;1.51;;;;;;;19.88;44.09;98570.43;;;;-54
2019/12/21 02:32:00;;;;;;;1.60;1.50;;;;;;;19.87;44.10;98564.83;;;;-46
2019/12/21 02:35:00;;;;;;;1.68;1.58;;;;;;;19.85;44.19;98563.45;;;;-54
2019/12/21 02:38:00;;;;;;;1.64;1.51;;;;;;;19.85;44.16;98561.11;;;;-50
2019/12/21 02:41:00;;;;;;;1.61;1.51;;;;;;;19.85;44.17;98554.25;;;;-49
2019/12/21 02:44:00;;;;;;;2.01;1.65;;;;;;;19.83;44.15;98549.37;;;;-54
2019/12/21 02:47:00;;;;;;;1.71;1.61;;;;;;;19.83;44.11;98548.86;;;;-50
2019/12/21 02:50:00;;;;;;;1.60;1.50;;;;;;;19.81;44.13;98542.30;;;;-54
2019/12/21 02:53:00;;;;;;;1.53;1.43;;;;;;;19.80;44.07;98532.23;;;;-54
2019/12/21 02:56:00;;;;;;;1.50;1.40;;;;;;;19.79;44.14;98533.67;;;;-54
2019/12/21 02:59:00;;;;;;;1.62;1.52;;;;;;;19.79;44.13;98532.56;;;;-46
2019/12/21 03:02:00;;;;;;;1.60;1.50;;;;;;;19.77;44.11;98532.88;;;;-50
2019/12/21 03:05:00;;;;;;;1.60;1.50;;;;;;;19.76;44.05;98528.50;;;;-54
2019/12/21 03:08:00;;;;;;;1.70;1.60;;;;;;;19.75;44.10;98525.84;;;;-46
2019/12/21 03:11:00;;;;;;;1.61;1.51;;;;;;;19.75;44.07;98528.69;;;;-50
2019/12/21 03:14:00;;;;;;;1.61;1.51;;;;;;;19.74;44.11;98522.13;;;;-49
2019/12/21 03:16:59;;;;;;;2.30;1.50;;;;;;;19.73;44.06;98515.98;;;;-49
2019/12/21 03:19:59;;;;;;;1.61;1.51;;;;;;;19.71;44.12;98515.58;;;;-50
2019/12/21 03:23:00;;;;;;;1.60;1.50;;;;;;;19.71;44.11;98513.14;;;;-49
2019/12/21 03:26:00;;;;;;;1.85;1.61;;;;;;;19.70;44.15;98512.02;;;;-54
2019/12/21 03:29:00;;;;;;;1.60;1.50;;;;;;;19.69;44.13;98508.86;;;;-53
2019/12/21 03:32:00;;;;;;;1.60;1.50;;;;;;;19.69;44.07;98502.97;;;;-49
2019/12/21 03:35:00;;;;;;;1.59;1.49;;;;;;;19.68;44.05;98490.97;;;;-49
2019/12/21 03:38:00;;;;;;;1.60;1.50;;;;;;;19.67;44.07;98489.16;;;;-46
2019/12/21 03:41:00;;;;;;;1.59;1.49;;;;;;;19.66;44.09;98493.72;;;;-50
2019/12/21 03:43:59;;;;;;;1.61;1.51;;;;;;;19.65;44.11;98488.35;;;;-54
2019/12/21 03:47:00;;;;;;;1.60;1.50;;;;;;;19.64;44.07;98488.11;;;;-49
2019/12/21 03:50:00;;;;;;;1.90;1.57;;;;;;;19.63;44.03;98491.60;;;;-54
2019/12/21 03:53:00;;;;;;;1.69;1.59;;;;;;;19.63;44.09;98495.97;;;;-46
2019/12/21 03:55:59;;;;;;;1.62;1.52;;;;;;;19.62;44.12;98487.48;;;;-50
2019/12/21 03:59:00;;;;;;;1.67;1.57;;;;;;;19.60;44.06;98482.93;;;;-49
2019/12/21 04:02:00;;;;;;;1.51;1.41;;;;;;;19.60;44.05;98481.95;;;;-49
2019/12/21 04:04:59;;;;;;;1.50;1.40;;;;;;;19.59;44.09;98479.44;;;;-49
2019/12/21 04:08:00;;;;;;;1.59;1.49;;;;;;;19.58;44.10;98486.52;;;;-48
2019/12/21 04:11:00;;;;;;;1.69;1.59;;;;;;;19.58;44.09;98486.36;;;;-54
2019/12/21 04:14:00;;;;;;;1.62;1.52;;;;;;;19.56;44.01;98481.47;;;;-54
2019/12/21 04:17:13;;;;;;;1.60;1.50;;;;;;;19.56;44.09;98488.33;;;;-49
2019/12/21 04:19:59;;;;;;;1.63;1.53;;;;;;;19.55;44.08;98481.96;;;;-49
2019/12/21 04:23:00;;;;;;;1.63;1.53;;;;;;;19.54;44.04;98477.69;;;;-46
2019/12/21 04:26:00;;;;;;;1.78;1.50;;;;;;;19.54;44.11;98480.62;;;;-49
2019/12/21 04:29:00;;;;;;;1.62;1.52;;;;;;;19.53;44.06;98482.03;;;;-49
2019/12/21 04:32:00;;;;;;;1.57;1.47;;;;;;;19.52;44.02;98478.52;;;;-46
2019/12/21 04:35:00;;;;;;;1.51;1.41;;;;;;;19.52;44.01;98474.40;;;;-46
2019/12/21 04:38:00;;;;;;;1.51;1.41;;;;;;;19.51;44.05;98476.25;;;;-49
2019/12/21 04:40:59;;;;;;;1.53;1.43;;;;;;;19.50;44.04;98472.62;;;;-49
2019/12/21 04:44:00;;;;;;;1.76;1.61;;;;;;;19.50;44.05;98471.61;;;;-46
2019/12/21 04:47:00;;;;;;;1.51;1.41;;;;;;;19.51;44.09;98470.97;;;;-46
2019/12/21 04:50:00;;;;;;;1.62;1.52;;;;;;;19.52;44.10;98470.89;;;;-50
2019/12/21 04:53:00;;;;;;;1.58;1.48;;;;;;;19.52;44.04;98464.78;;;;-49
2019/12/21 04:56:00;;;;;;;1.54;1.42;;;;;;;19.54;44.08;98465.38;;;;-46
2019/12/21 04:59:00;;;;;;;1.61;1.51;;;;;;;19.55;44.04;98472.59;;;;-50
2019/12/21 05:02:00;;;;;;;1.47;1.37;;;;;;;19.57;44.08;98481.09;;;;-46
2019/12/21 05:05:00;;;;;;;1.64;1.50;;;;;;;19.58;44.24;98488.54;;;;-46
2019/12/21 05:08:00;;;;;;;1.40;1.30;;;;;;;19.61;44.18;98478.59;;;;-49
2019/12/21 05:11:00;;;;;;;1.46;1.36;;;;;;;19.64;44.23;98470.26;;;;-49
2019/12/21 05:14:00;;;;;;;1.41;1.31;;;;;;;19.66;44.17;98463.01;;;;-49
2019/12/21 05:17:00;;;;;;;1.61;1.49;;;;;;;19.70;44.26;98454.99;;;;-49
2019/12/21 05:19:59;;;;;;;1.40;1.30;;;;;;;19.73;44.15;98456.80;;;;-49
2019/12/21 05:22:59;;;;;;;1.49;1.39;;;;;;;19.77;44.20;98450.74;;;;-49
2019/12/21 05:26:00;;;;;;;1.50;1.40;;;;;;;19.80;44.22;98443.97;;;;-49
2019/12/21 05:29:00;;;;;;;1.50;1.40;;;;;;;19.83;44.21;98440.66;;;;-49
2019/12/21 05:32:00;;;;;;;1.41;1.31;;;;;;;19.86;44.27;98440.52;;;;-49
2019/12/21 05:35:00;;;;;;;1.45;1.35;;;;;;;19.90;44.21;98434.86;;;;-53
2019/12/21 05:38:00;;;;;;;1.49;1.39;;;;;;;19.92;44.30;98428.28;;;;-54
2019/12/21 05:40:59;;;;;;;2.04;1.40;;;;;;;19.95;44.30;98429.39;;;;-53
2019/12/21 05:43:59;;;;;;;1.60;1.50;;;;;;;19.99;44.28;98430.87;;;;-53
2019/12/21 05:47:00;;;;;;;1.46;1.36;;;;;;;20.01;44.32;98426.30;;;;-50
2019/12/21 05:50:00;;;;;;;1.50;1.40;;;;;;;20.04;44.29;98424.55;;;;-50
2019/12/21 05:53:00;;;;;;;1.33;1.23;;;;;;;20.07;44.33;98424.41;;;;-51
2019/12/21 05:56:00;;;;;;;1.31;1.21;;;;;;;20.10;44.32;98425.27;;;;-50
2019/12/21 05:59:00;;;;;;;1.50;1.40;;;;;;;20.13;44.36;98427.33;;;;-50
2019/12/21 06:02:00;;;;;;;1.47;1.37;;;;;;;20.16;44.29;98420.62;;;;-50
2019/12/21 06:05:00;;;;;;;1.43;1.33;;;;;;;20.18;44.35;98428.87;;;;-50
2019/12/21 06:08:00;;;;;;;1.45;1.35;;;;;;;20.20;44.27;98432.41;;;;-50
2019/12/21 06:10:59;;;;;;;1.40;1.30;;;;;;;20.24;44.25;98433.19;;;;-50
2019/12/21 06:14:00;;;;;;;1.39;1.29;;;;;;;20.26;44.26;98425.14;;;;-50
2019/12/21 06:17:00;;;;;;;2.10;1.47;;;;;;;20.25;43.64;98440.14;;;;-51
2019/12/21 06:20:00;;;;;;;3.89;2.29;;;;;;;20.11;41.78;98446.65;;;;-51
2019/12/21 06:23:00;;;;;;;2.64;2.29;;;;;;;19.99;40.82;98449.55;;;;-50
2019/12/21 06:26:00;;;;;;;2.57;2.37;;;;;;;19.89;40.29;98460.75;;;;-51
2019/12/21 06:29:00;;;;;;;2.50;2.30;;;;;;;19.83;39.80;98460.59;;;;-50
2019/12/21 06:32:00;;;;;;;2.48;2.23;;;;;;;19.74;39.47;98463.27;;;;-50
2019/12/21 06:35:00;;;;;;;2.49;2.29;;;;;;;19.64;39.21;98466.57;;;;-51
2019/12/21 06:38:00;;;;;;;2.55;2.35;;;;;;;19.59;38.85;98466.28;;;;-51
2019/12/21 06:41:00;;;;;;;2.63;2.43;;;;;;;19.49;38.58;98464.51;;;;-51
2019/12/21 06:44:00;;;;;;;2.74;2.43;;;;;;;19.44;38.51;98465.09;;;;-50
2019/12/21 06:46:59;;;;;;;3.00;2.55;;;;;;;19.34;38.18;98464.08;;;;-50
2019/12/21 06:49:59;;;;;;;2.67;2.47;;;;;;;19.26;38.04;98460.79;;;;-50
2019/12/21 06:53:00;;;;;;;2.75;2.41;;;;;;;19.23;37.93;98462.50;;;;-50
2019/12/21 06:56:00;;;;;;;4.59;2.74;;;;;;;19.14;37.74;98460.73;;;;-51
2019/12/21 06:59:00;;;;;;;2.82;2.50;;;;;;;19.06;37.67;98459.91;;;;-51
2019/12/21 07:01:59;;;;;;;3.31;2.90;;;;;;;19.04;38.06;98459.39;;;;-50
2019/12/21 07:05:00;;;;;;;3.67;2.63;;;;;;;19.17;38.72;98460.82;;;;-49
2019/12/21 07:07:59;;;;;;;2.52;2.28;;;;;;;19.25;39.03;98454.99;;;;-49
2019/12/21 07:11:00;;;;;;;2.80;2.39;;;;;;;19.30;39.40;98459.74;;;;-49
2019/12/21 07:13:59;;;;;;;2.32;2.09;;;;;;;19.35;39.76;98465.23;;;;-49
2019/12/21 07:16:59;;;;;;;2.09;1.91;;;;;;;19.39;40.01;98466.05;;;;-49
2019/12/21 07:20:00;;;;;;;2.11;1.91;;;;;;;19.43;40.08;98466.84;;;;-46
2019/12/21 07:23:00;;;;;;;2.02;1.83;;;;;;;19.45;40.29;98466.53;;;;-46
2019/12/21 07:26:00;;;;;;;2.13;1.74;;;;;;;19.49;40.38;98474.89;;;;-46
2019/12/21 07:29:02;;;;;;;2.96;1.83;;;;;;;19.52;40.51;98474.06;;;;-46
2019/12/21 07:31:59;;;;;;;2.17;1.70;;;;;;;19.54;40.65;98472.58;;;;-48
2019/12/21 07:34:59;;;;;;;1.73;1.63;;;;;;;19.55;40.69;98469.33;;;;-49
2019/12/21 07:38:00;;;;;;;2.00;1.80;;;;;;;19.58;40.78;98468.20;;;;-54
2019/12/21 07:40:59;;;;;;;1.83;1.66;;;;;;;19.58;40.88;98461.17;;;;-50
2019/12/21 07:44:00;;;;;;;1.96;1.70;;;;;;;19.60;40.92;98463.53;;;;-50
2019/12/21 07:46:59;;;;;;;1.79;1.69;;;;;;;19.61;41.00;98461.34;;;;-50
2019/12/21 07:49:59;;;;;;;2.23;1.55;;;;;;;19.62;41.11;98466.98;;;;-50
2019/12/21 07:53:00;;;;;;;1.52;1.42;;;;;;;19.63;41.20;98475.55;;;;-50
2019/12/21 07:55:59;;;;;;;1.70;1.60;;;;;;;19.63;41.26;98482.13;;;;-50
2019/12/21 07:58:59;;;;;;;1.60;1.50;;;;;;;19.63;41.33;98491.52;;;;-50
2019/12/21 08:01:59;;;;;;;1.61;1.51;;;;;;;19.63;41.32;98499.37;;;;-50
2019/12/21 08:05:00;;;;;;;2.14;1.69;;;;;;;19.63;41.37;98500.98;;;;-50
2019/12/21 08:07:59;;;;;;;1.83;1.55;;;;;;;19.63;41.39;98497.20;;;;-50
2019/12/21 08:10:59;;;;;;;1.66;1.56;;;;;;;19.63;41.52;98491.67;;;;-50
2019/12/21 08:13:59;;;;;;;1.50;1.40;;;;;;;19.63;41.52;98490.27;;;;-49
2019/12/21 08:16:59;;;;;;;1.53;1.43;;;;;;;19.62;41.64;98488.17;;;;-50
2019/12/21 08:19:59;;;;;;;1.60;1.50;;;;;;;19.63;41.64;98489.27;;;;-46
2019/12/21 08:23:00;;;;;;;1.60;1.50;;;;;;;19.62;41.65;98483.55;;;;-46
2019/12/21 08:26:00;;;;;;;3.11;1.57;;;;;;;19.63;42.15;98484.48;;;;-43
2019/12/21 08:29:00;;;;;;;1.87;1.64;;;;;;;19.63;42.30;98484.48;;;;-43
2019/12/21 08:31:59;;;;;;;1.91;1.60;;;;;;;19.64;42.37;98487.77;;;;-43
2019/12/21 08:34:59;;;;;;;1.97;1.70;;;;;;;19.66;42.13;98492.89;;;;-45
2019/12/21 08:37:59;;;;;;;1.87;1.60;;;;;;;19.70;41.87;98489.16;;;;-52
2019/12/21 08:41:00;;;;;;;1.97;1.57;;;;;;;19.72;41.96;98493.70;;;;-48
2019/12/21 08:43:59;;;;;;;1.60;1.50;;;;;;;19.75;41.96;98501.63;;;;-48
2019/12/21 08:46:59;;;;;;;2.45;1.58;;;;;;;19.77;42.01;98499.87;;;;-48
2019/12/21 08:49:59;;;;;;;1.77;1.59;;;;;;;19.80;42.03;98498.67;;;;-50
2019/12/21 08:52:59;;;;;;;1.52;1.40;;;;;;;19.83;42.04;98499.45;;;;-50
2019/12/21 08:56:00;;;;;;;1.54;1.41;;;;;;;19.86;42.06;98498.82;;;;-50
2019/12/21 08:58:59;;;;;;;1.61;1.50;;;;;;;19.88;42.05;98501.92;;;;-46
2019/12/21 09:02:00;;;;;;;2.05;1.63;;;;;;;19.90;42.05;98503.04;;;;-46
2019/12/21 09:04:59;;;;;;;1.70;1.50;;;;;;;19.94;42.07;98509.77;;;;-50
2019/12/21 09:07:59;;;;;;;1.60;1.50;;;;;;;19.96;42.07;98508.11;;;;-48
2019/12/21 09:10:59;;;;;;;1.75;1.50;;;;;;;19.98;42.04;98506.39;;;;-48
2019/12/21 09:14:00;;;;;;;2.08;1.50;;;;;;;20.00;42.08;98501.01;;;;-48
2019/12/21 09:16:59;;;;;;;1.51;1.40;;;;;;;20.02;42.07;98500.25;;;;-48
2019/12/21 09:20:00;;;;;;;1.52;1.42;;;;;;;20.04;42.03;98506.58;;;;-50
2019/12/21 09:22:59;;;;;;;2.26;1.48;;;;;;;20.07;42.12;98513.47;;;;-50
2019/12/21 09:25:59;;;;;;;2.08;1.49;;;;;;;20.09;42.06;98511.12;;;;-50
2019/12/21 09:28:59;;;;;;;1.55;1.45;;;;;;;20.12;42.11;98514.53;;;;-50
2019/12/21 09:32:00;;;;;;;1.51;1.41;;;;;;;20.13;42.15;98504.58;;;;-50
2019/12/21 09:35:00;;;;;;;2.06;1.62;;;;;;;20.15;42.28;98507.17;;;;-51
2019/12/21 09:37:59;;;;;;;2.49;1.86;;;;;;;20.17;41.71;98506.93;;;;-50
2019/12/21 09:41:00;;;;;;;1.67;1.56;;;;;;;20.19;41.87;98509.56;;;;-50
2019/12/21 09:43:59;;;;;;;1.65;1.55;;;;;;;20.21;41.96;98505.73;;;;-49
2019/12/21 09:46:59;;;;;;;7.53;1.89;;;;;;;20.26;42.84;98509.13;;;;-47
2019/12/21 09:49:59;;;;;;;5.27;1.81;;;;;;;20.31;43.20;98504.31;;;;-51
2019/12/21 09:52:59;;;;;;;6.93;1.70;;;;;;;20.33;43.30;98506.69;;;;-46
2019/12/21 09:55:59;;;;;;;6.12;1.49;;;;;;;20.35;42.99;98504.17;;;;-51
2019/12/21 09:58:59;;;;;;;2.16;1.44;;;;;;;20.38;43.22;98499.25;;;;-50
2019/12/21 10:01:59;;;;;;;3.79;1.84;;;;;;;20.41;43.33;98494.27;;;;-50
2019/12/21 10:04:59;;;;;;;4.08;1.60;;;;;;;20.44;43.23;98485.56;;;;-50
2019/12/21 10:07:59;;;;;;;3.13;1.58;;;;;;;20.48;43.47;98475.69;;;;-44
2019/12/21 10:10:59;;;;;;;3.21;1.58;;;;;;;20.50;43.43;98469.92;;;;-50
2019/12/21 10:13:59;;;;;;;3.08;1.65;;;;;;;20.51;43.04;98468.83;;;;-45
2019/12/21 10:16:59;;;;;;;4.89;1.78;;;;;;;20.51;43.14;98465.65;;;;-49
2019/12/21 10:19:59;;;;;;;2.51;1.53;;;;;;;20.53;43.25;98463.98;;;;-47
2019/12/21 10:22:59;;;;;;;3.01;1.62;;;;;;;20.54;43.18;98456.56;;;;-45
2019/12/21 10:25:59;;;;;;;4.07;1.45;;;;;;;20.54;43.10;98459.23;;;;-48
2019/12/21 10:28:59;;;;;;;4.41;1.54;;;;;;;20.56;43.56;98447.75;;;;-51
2019/12/21 10:32:00;;;;;;;3.34;1.68;;;;;;;20.58;43.17;98443.33;;;;-48
2019/12/21 10:35:00;;;;;;;3.91;1.62;;;;;;;20.58;43.17;98441.31;;;;-46
2019/12/21 10:38:00;;;;;;;5.46;1.70;;;;;;;20.59;43.10;98441.73;;;;-49
2019/12/21 10:40:59;;;;;;;2.41;1.59;;;;;;;20.59;43.01;98439.41;;;;-50
2019/12/21 10:43:59;;;;;;;2.27;1.50;;;;;;;20.58;43.01;98445.50;;;;-47
2019/12/21 10:46:59;;;;;;;4.39;1.65;;;;;;;20.60;43.20;98452.81;;;;-46
2019/12/21 10:49:59;;;;;;;3.11;1.50;;;;;;;20.59;43.20;98453.66;;;;-45
2019/12/21 10:52:59;;;;;;;4.25;1.70;;;;;;;20.59;43.20;98452.97;;;;-51
2019/12/21 10:56:00;;;;;;;1.92;1.50;;;;;;;20.59;43.12;98451.66;;;;-48
2019/12/21 10:58:59;;;;;;;1.98;1.49;;;;;;;20.61;43.10;98447.55;;;;-51
2019/12/21 11:01:59;;;;;;;1.74;1.45;;;;;;;20.60;43.09;98449.45;;;;-47
2019/12/21 11:04:59;;;;;;;3.40;1.51;;;;;;;20.61;43.15;98447.45;;;;-45
2019/12/21 11:07:59;;;;;;;2.55;1.47;;;;;;;20.60;42.95;98453.39;;;;-45
2019/12/21 11:10:59;;;;;;;2.53;1.56;;;;;;;20.60;43.07;98443.00;;;;-49
2019/12/21 11:14:00;;;;;;;1.89;1.45;;;;;;;20.60;43.08;98448.20;;;;-44
2019/12/21 11:17:00;;;;;;;3.25;1.64;;;;;;;20.62;43.06;98447.63;;;;-47
2019/12/21 11:19:59;;;;;;;2.68;1.54;;;;;;;20.62;43.16;98440.41;;;;-53
2019/12/21 11:22:59;;;;;;;2.19;1.61;;;;;;;20.62;43.11;98438.59;;;;-49
2019/12/21 11:25:59;;;;;;;1.60;1.50;;;;;;;20.63;43.06;98435.39;;;;-50
2019/12/21 11:29:00;;;;;;;4.07;1.41;;;;;;;20.63;43.09;98430.95;;;;-51
2019/12/21 11:31:59;;;;;;;1.81;1.53;;;;;;;20.65;43.06;98425.00;;;;-50
2019/12/21 11:34:59;;;;;;;2.08;1.40;;;;;;;20.65;43.05;98417.78;;;;-50
2019/12/21 11:37:59;;;;;;;3.83;1.45;;;;;;;20.66;43.12;98411.34;;;;-50
2019/12/21 11:40:59;;;;;;;1.68;1.49;;;;;;;20.67;43.04;98411.61;;;;-50
2019/12/21 11:43:59;;;;;;;2.41;1.50;;;;;;;20.67;43.00;98407.84;;;;-51
2019/12/21 11:46:59;;;;;;;1.73;1.50;;;;;;;20.68;43.10;98404.41;;;;-51
2019/12/21 11:49:59;;;;;;;1.80;1.45;;;;;;;20.68;43.13;98400.87;;;;-53
2019/12/21 11:52:59;;;;;;;1.61;1.50;;;;;;;20.68;43.08;98390.73;;;;-56
2019/12/21 11:55:59;;;;;;;1.58;1.48;;;;;;;20.69;43.17;98390.57;;;;-55
2019/12/21 11:58:59;;;;;;;2.33;1.50;;;;;;;20.70;43.09;98392.92;;;;-54
2019/12/21 12:01:59;;;;;;;1.59;1.49;;;;;;;20.70;43.03;98389.06;;;;-58
2019/12/21 12:04:59;;;;;;;2.59;1.61;;;;;;;20.72;42.99;98388.31;;;;-60
2019/12/21 12:07:59;;;;;;;1.99;1.50;;;;;;;20.72;43.15;98381.10;;;;-62
2019/12/21 12:10:59;;;;;;;1.37;1.27;;;;;;;20.73;43.13;98377.01;;;;-54
2019/12/21 12:13:59;;;;;;;1.51;1.40;;;;;;;20.74;43.23;98366.88;;;;-53
2019/12/21 12:16:59;;;;;;;1.60;1.40;;;;;;;20.74;43.10;98363.50;;;;-45
2019/12/21 12:19:59;;;;;;;1.51;1.41;;;;;;;20.74;43.20;98362.16;;;;-45
2019/12/21 12:23:00;;;;;;;1.60;1.50;;;;;;;20.74;43.12;98357.30;;;;-47
2019/12/21 12:25:59;;;;;;;1.56;1.31;;;;;;;20.74;43.19;98358.06;;;;-48
2019/12/21 12:29:01;;;;;;;1.63;1.43;;;;;;;20.76;43.19;98350.94;;;;-46
2019/12/21 12:31:59;;;;;;;1.76;1.43;;;;;;;20.76;43.13;98345.64;;;;-47
2019/12/21 12:34:59;;;;;;;1.96;1.40;;;;;;;20.76;43.11;98343.48;;;;-45
2019/12/21 12:38:02;;;;;;;1.90;1.50;;;;;;;20.77;43.13;98341.81;;;;-48
2019/12/21 12:40:59;;;;;;;2.59;1.41;;;;;;;20.78;43.23;98334.69;;;;-47
2019/12/21 12:43:59;;;;;;;1.43;1.32;;;;;;;20.79;43.37;98326.89;;;;-47
2019/12/21 12:46:59;;;;;;;1.69;1.43;;;;;;;20.79;42.99;98326.31;;;;-47
2019/12/21 12:49:59;;;;;;;2.25;1.43;;;;;;;20.78;42.95;98326.13;;;;-46
2019/12/21 12:52:59;;;;;;;2.09;1.30;;;;;;;20.77;42.86;98319.23;;;;-47
2019/12/21 12:55:59;;;;;;;1.43;1.33;;;;;;;20.76;42.80;98314.78;;;;-47
2019/12/21 12:58:59;;;;;;;1.89;1.41;;;;;;;20.75;42.78;98314.27;;;;-47
2019/12/21 13:01:59;;;;;;;1.40;1.30;;;;;;;20.74;42.77;98305.38;;;;-47
2019/12/21 13:05:00;;;;;;;1.51;1.41;;;;;;;20.73;42.78;98301.44;;;;-47
2019/12/21 13:07:59;;;;;;;1.36;1.26;;;;;;;20.72;42.74;98307.31;;;;-46
2019/12/21 13:10:59;;;;;;;1.62;1.40;;;;;;;20.72;42.82;98310.23;;;;-45
2019/12/21 13:13:59;;;;;;;2.80;1.33;;;;;;;20.71;42.90;98301.19;;;;-47
2019/12/21 13:16:59;;;;;;;2.40;1.37;;;;;;;20.70;43.01;98292.20;;;;-48
2019/12/21 13:19:59;;;;;;;1.55;1.28;;;;;;;20.71;43.43;98290.36;;;;-50
2019/12/21 13:22:59;;;;;;;2.70;1.63;;;;;;;20.74;42.95;98287.37;;;;-51
2019/12/21 13:25:59;;;;;;;3.15;1.36;;;;;;;20.73;42.88;98288.38;;;;-51
2019/12/21 13:28:59;;;;;;;1.69;1.33;;;;;;;20.71;42.85;98290.62;;;;-51
2019/12/21 13:32:00;;;;;;;2.17;1.40;;;;;;;20.71;42.80;98285.84;;;;-51
2019/12/21 13:34:59;;;;;;;2.11;1.40;;;;;;;20.70;42.75;98284.58;;;;-51
2019/12/21 13:37:59;;;;;;;1.88;1.40;;;;;;;20.70;42.79;98288.78;;;;-51
2019/12/21 13:40:59;;;;;;;2.41;1.29;;;;;;;20.68;42.77;98278.94;;;;-50
2019/12/21 13:43:59;;;;;;;1.42;1.30;;;;;;;20.67;42.72;98278.59;;;;-51
2019/12/21 13:46:59;;;;;;;2.03;1.42;;;;;;;20.68;42.75;98279.63;;;;-50
2019/12/21 13:49:59;;;;;;;2.55;1.40;;;;;;;20.67;42.75;98282.81;;;;-51
2019/12/21 13:52:59;;;;;;;1.40;1.30;;;;;;;20.66;42.72;98276.00;;;;-51
2019/12/21 13:55:59;;;;;;;1.40;1.30;;;;;;;20.66;42.77;98273.67;;;;-51
2019/12/21 13:58:59;;;;;;;1.85;1.29;;;;;;;20.66;42.73;98264.67;;;;-51
2019/12/21 14:01:59;;;;;;;1.61;1.30;;;;;;;20.66;42.71;98258.06;;;;-51
2019/12/21 14:04:59;;;;;;;2.19;1.33;;;;;;;20.65;42.75;98259.66;;;;-51
2019/12/21 14:07:59;;;;;;;1.71;1.39;;;;;;;20.65;42.77;98259.81;;;;-51
2019/12/21 14:10:59;;;;;;;2.20;1.41;;;;;;;20.65;42.73;98257.56;;;;-51
2019/12/21 14:13:59;;;;;;;2.67;1.37;;;;;;;20.63;42.99;98252.02;;;;-49
2019/12/21 14:17:00;;;;;;;2.19;1.40;;;;;;;20.62;42.67;98249.75;;;;-47
2019/12/21 14:19:59;;;;;;;4.01;1.51;;;;;;;20.61;42.83;98250.34;;;;-48
2019/12/21 14:22:59;;;;;;;3.39;1.61;;;;;;;20.61;42.66;98254.80;;;;-49
2019/12/21 14:25:59;;;;;;;1.86;1.53;;;;;;;20.61;42.68;98253.59;;;;-47
2019/12/21 14:28:59;;;;;;;2.07;1.49;;;;;;;20.60;42.58;98248.47;;;;-51
2019/12/21 14:31:59;;;;;;;1.92;1.51;;;;;;;20.60;42.61;98241.95;;;;-51
2019/12/21 14:34:59;;;;;;;2.88;1.64;;;;;;;20.59;42.42;98242.88;;;;-52
2019/12/21 14:37:59;;;;;;;2.84;1.51;;;;;;;20.59;42.43;98239.17;;;;-52
2019/12/21 14:40:59;;;;;;;1.99;1.60;;;;;;;20.59;42.74;98233.39;;;;-51
2019/12/21 14:43:59;;;;;;;1.99;1.60;;;;;;;20.58;42.56;98228.34;;;;-48
2019/12/21 14:46:59;;;;;;;2.67;1.50;;;;;;;20.59;42.49;98223.15;;;;-50
2019/12/21 14:49:59;;;;;;;2.26;1.51;;;;;;;20.60;42.49;98217.87;;;;-47
2019/12/21 14:52:59;;;;;;;2.16;1.50;;;;;;;20.60;42.44;98221.08;;;;-49
2019/12/21 14:56:00;;;;;;;1.82;1.65;;;;;;;20.60;42.45;98211.00;;;;-49
2019/12/21 14:58:59;;;;;;;2.08;1.59;;;;;;;20.60;42.72;98199.95;;;;-49
2019/12/21 15:01:59;;;;;;;2.87;1.65;;;;;;;20.61;42.58;98197.85;;;;-51
2019/12/21 15:05:00;;;;;;;1.78;1.61;;;;;;;20.61;42.67;98193.41;;;;-54
2019/12/21 15:08:00;;;;;;;3.03;1.67;;;;;;;20.61;42.50;98191.81;;;;-52
2019/12/21 15:10:59;;;;;;;1.93;1.72;;;;;;;20.62;42.53;98193.50;;;;-59
2019/12/21 15:13:59;;;;;;;3.17;1.90;;;;;;;20.61;42.45;98192.39;;;;-52
2019/12/21 15:16:59;;;;;;;2.57;2.10;;;;;;;20.63;42.44;98188.71;;;;-54
2019/12/21 15:19:59;;;;;;;1.74;1.60;;;;;;;20.63;42.46;98183.50;;;;-54
2019/12/21 15:22:59;;;;;;;3.48;1.74;;;;;;;20.66;42.44;98188.37;;;;-54
2019/12/21 15:25:59;;;;;;;1.85;1.59;;;;;;;20.66;42.45;98192.23;;;;-53
2019/12/21 15:28:59;;;;;;;2.69;1.78;;;;;;;20.67;42.55;98191.48;;;;-57
2019/12/21 15:31:59;;;;;;;3.54;1.73;;;;;;;20.68;42.81;98197.19;;;;-60
2019/12/21 15:34:59;;;;;;;3.92;1.81;;;;;;;20.70;43.05;98198.46;;;;-53
2019/12/21 15:37:59;;;;;;;2.31;1.70;;;;;;;20.73;42.95;98198.80;;;;-61
2019/12/21 15:41:10;;;;;;;2.85;1.70;;;;;;;20.73;43.02;98195.28;;;;-51
2019/12/21 15:43:59;;;;;;;2.62;1.60;;;;;;;20.73;43.21;98191.43;;;;-47
2019/12/21 15:46:59;;;;;;;1.83;1.59;;;;;;;20.74;43.20;98190.31;;;;-50
2019/12/21 15:49:59;;;;;;;3.69;1.85;;;;;;;20.75;43.23;98190.26;;;;-49
2019/12/21 15:53:00;;;;;;;2.97;1.60;;;;;;;20.76;43.43;98186.48;;;;-50
2019/12/21 15:56:00;;;;;;;2.51;1.52;;;;;;;20.80;43.10;98188.52;;;;-49
2019/12/21 15:58:59;;;;;;;2.51;1.70;;;;;;;20.78;42.95;98187.41;;;;-50
2019/12/21 16:01:59;;;;;;;1.75;1.60;;;;;;;20.78;42.88;98188.48;;;;-50
2019/12/21 16:04:59;;;;;;;1.99;1.61;;;;;;;20.78;42.80;98191.45;;;;-50
2019/12/21 16:07:59;;;;;;;1.73;1.60;;;;;;;20.78;42.79;98187.75;;;;-49
2019/12/21 16:10:59;;;;;;;1.89;1.60;;;;;;;20.77;42.78;98186.13;;;;-49
2019/12/21 16:13:59;;;;;;;1.61;1.51;;;;;;;20.77;42.77;98187.41;;;;-50
2019/12/21 16:16:59;;;;;;;2.21;1.70;;;;;;;20.75;42.72;98186.55;;;;-49
2019/12/21 16:19:59;;;;;;;2.09;1.75;;;;;;;20.76;42.75;98192.02;;;;-50
2019/12/21 16:22:59;;;;;;;2.10;1.73;;;;;;;20.75;42.75;98190.84;;;;-50
2019/12/21 16:26:00;;;;;;;1.85;1.55;;;;;;;20.75;42.73;98181.70;;;;-49
2019/12/21 16:28:59;;;;;;;1.67;1.54;;;;;;;20.75;42.72;98182.60;;;;-49
2019/12/21 16:31:59;;;;;;;3.41;1.77;;;;;;;20.75;42.68;98186.31;;;;-50
2019/12/21 16:34:59;;;;;;;2.01;1.74;;;;;;;20.74;42.71;98185.80;;;;-50
2019/12/21 16:37:59;;;;;;;5.48;1.70;;;;;;;20.74;42.72;98189.25;;;;-50
2019/12/21 16:40:59;;;;;;;2.29;1.57;;;;;;;20.73;42.78;98190.67;;;;-48
2019/12/21 16:43:59;;;;;;;2.03;1.87;;;;;;;20.73;42.84;98188.08;;;;-48
2019/12/21 16:47:00;;;;;;;2.30;2.10;;;;;;;20.73;42.83;98180.01;;;;-47
2019/12/21 16:50:00;;;;;;;2.36;2.16;;;;;;;20.73;42.78;98176.34;;;;-49
2019/12/21 16:53:00;;;;;;;3.33;2.15;;;;;;;20.74;42.89;98172.88;;;;-50
2019/12/21 16:55:59;;;;;;;2.53;2.14;;;;;;;20.74;42.81;98166.69;;;;-51